sensor_id;sensor_type;location;lat;lon;timestamp;temperature;humidity
1578;DHT22;57623;53.608;10.004;2023-02-05T00:01:52;1.00;99.90
1578;DHT22;57623;53.608;10.004;2023-02-05T00:04:23;0.90;99.90
1578;DHT22;57623;53.608;10.004;2023-02-05T00:06:51;0.90;99.90
1578;DHT22;57623;53.608;10.004;2023-02-05T00:09:23;0.90;99.90
1578;DHT22;57623;53.608;10.004;2023-02-05T00:11:56;0.80;99.90
1578;DHT22;57623;53.608;10.004;2023-02-05T00:14:26;0.80;99.90
1578;DHT22;57623;53.608;10.004;2023-02-05T00:16:54;0.80;99.90
1578;DHT22;57623;53.608;10.004;2023-02-05T00:19:29;0.80;99.90
1578;DHT22;57623;53.608;10.004;2023-02-05T00:22:00;0.80;99.90
1578;DHT22;57623;53.608;10.004;2023-02-05T00:24:37;0.80;99.90
1578;DHT22;57623;53.608;10.004;2023-02-05T00:27:16;0.80;99.90
1578;DHT22;57623;53.608;10.004;2023-02-05T00:29:46;0.80;99.90
1578;DHT22;57623;53.608;10.004;2023-02-05T00:32:20;0.70;99.90
1578;DHT22;57623;53.608;10.004;2023-02-05T00:34:49;0.80;99.90
1578;DHT22;57623;53.608;10.004;2023-02-05T00:37:22;0.80;99.90
1578;DHT22;57623;53.608;10.004;2023-02-05T00:39:55;0.70;99.90
1578;DHT22;57623;53.608;10.004;2023-02-05T00:42:27;0.70;99.90
1578;DHT22;57623;53.608;10.004;2023-02-05T00:44:55;0.70;99.90
1578;DHT22;57623;53.608;10.004;2023-02-05T00:47:23;0.70;99.90
1578;DHT22;57623;53.608;10.004;2023-02-05T00:49:50;0.70;99.90
1578;DHT22;57623;53.608;10.004;2023-02-05T00:52:18;0.70;99.90
1578;DHT22;57623;53.608;10.004;2023-02-05T00:54:46;0.70;99.90
1578;DHT22;57623;53.608;10.004;2023-02-05T00:57:20;0.70;99.90
1578;DHT22;57623;53.608;10.004;2023-02-05T00:59:50;0.60;99.90
1578;DHT22;57623;53.608;10.004;2023-02-05T01:02:24;0.70;99.90
1578;DHT22;57623;53.608;10.004;2023-02-05T01:04:53;0.60;99.90
1578;DHT22;57623;53.608;10.004;2023-02-05T01:07:28;0.60;99.90
1578;DHT22;57623;53.608;10.004;2023-02-05T01:10:04;0.60;99.90
1578;DHT22;57623;53.608;10.004;2023-02-05T01:12:36;0.60;99.90
1578;DHT22;57623;53.608;10.004;2023-02-05T01:15:05;0.50;99.90
1578;DHT22;57623;53.608;10.004;2023-02-05T01:17:38;0.50;99.90
1578;DHT22;57623;53.608;10.004;2023-02-05T01:20:11;0.50;99.90
1578;DHT22;57623;53.608;10.004;2023-02-05T01:22:39;0.50;99.90
1578;DHT22;57623;53.608;10.004;2023-02-05T01:25:17;0.50;99.90
1578;DHT22;57623;53.608;10.004;2023-02-05T01:27:48;0.40;99.90
1578;DHT22;57623;53.608;10.004;2023-02-05T01:30:24;0.40;99.90
1578;DHT22;57623;53.608;10.004;2023-02-05T01:32:52;0.40;99.90
1578;DHT22;57623;53.608;10.004;2023-02-05T01:35:24;0.40;99.90
1578;DHT22;57623;53.608;10.004;2023-02-05T01:37:52;0.40;99.90
1578;DHT22;57623;53.608;10.004;2023-02-05T01:40:22;0.30;99.90
1578;DHT22;57623;53.608;10.004;2023-02-05T01:42:54;0.30;99.90
1578;DHT22;57623;53.608;10.004;2023-02-05T01:45:48;0.30;99.90
1578;DHT22;57623;53.608;10.004;2023-02-05T01:48:24;0.30;99.90
1578;DHT22;57623;53.608;10.004;2023-02-05T01:50:56;0.20;99.90
1578;DHT22;57623;53.608;10.004;2023-02-05T01:53:34;0.30;99.90
1578;DHT22;57623;53.608;10.004;2023-02-05T01:56:15;0.20;99.90
1578;DHT22;57623;53.608;10.004;2023-02-05T01:58:50;0.20;99.90
1578;DHT22;57623;53.608;10.004;2023-02-05T02:01:26;0.20;99.90
1578;DHT22;57623;53.608;10.004;2023-02-05T02:03:55;0.30;99.90
1578;DHT22;57623;53.608;10.004;2023-02-05T02:06:28;0.30;99.90
1578;DHT22;57623;53.608;10.004;2023-02-05T02:08:56;0.30;99.90
1578;DHT22;57623;53.608;10.004;2023-02-05T02:11:28;0.30;99.90
1578;DHT22;57623;53.608;10.004;2023-02-05T02:14:04;0.30;99.90
1578;DHT22;57623;53.608;10.004;2023-02-05T02:16:36;0.30;99.90
1578;DHT22;57623;53.608;10.004;2023-02-05T02:19:13;0.30;99.90
1578;DHT22;57623;53.608;10.004;2023-02-05T02:22:31;0.30;99.90
1578;DHT22;57623;53.608;10.004;2023-02-05T02:25:18;0.30;99.90
1578;DHT22;57623;53.608;10.004;2023-02-05T02:27:52;0.30;99.90
1578;DHT22;57623;53.608;10.004;2023-02-05T02:30:24;0.40;99.90
1578;DHT22;57623;53.608;10.004;2023-02-05T02:33:03;0.40;99.90
1578;DHT22;57623;53.608;10.004;2023-02-05T02:35:40;0.40;99.90
1578;DHT22;57623;53.608;10.004;2023-02-05T02:38:20;0.40;99.90
1578;DHT22;57623;53.608;10.004;2023-02-05T02:40:53;0.40;99.90
1578;DHT22;57623;53.608;10.004;2023-02-05T02:43:29;0.40;99.90
1578;DHT22;57623;53.608;10.004;2023-02-05T02:46:03;0.40;99.90
1578;DHT22;57623;53.608;10.004;2023-02-05T02:48:36;0.40;99.90
1578;DHT22;57623;53.608;10.004;2023-02-05T02:51:06;0.40;99.90
1578;DHT22;57623;53.608;10.004;2023-02-05T02:53:40;0.40;99.90
1578;DHT22;57623;53.608;10.004;2023-02-05T02:56:10;0.40;99.90
1578;DHT22;57623;53.608;10.004;2023-02-05T02:58:49;0.40;99.90
1578;DHT22;57623;53.608;10.004;2023-02-05T03:01:21;0.40;99.90
1578;DHT22;57623;53.608;10.004;2023-02-05T03:03:59;0.40;99.90
1578;DHT22;57623;53.608;10.004;2023-02-05T03:06:33;0.40;99.90
1578;DHT22;57623;53.608;10.004;2023-02-05T03:09:06;0.30;99.90
1578;DHT22;57623;53.608;10.004;2023-02-05T03:11:38;0.30;99.90
1578;DHT22;57623;53.608;10.004;2023-02-05T03:14:15;0.30;99.90
1578;DHT22;57623;53.608;10.004;2023-02-05T03:16:45;0.30;99.90
1578;DHT22;57623;53.608;10.004;2023-02-05T03:19:13;0.30;99.90
1578;DHT22;57623;53.608;10.004;2023-02-05T03:21:45;0.30;99.90
1578;DHT22;57623;53.608;10.004;2023-02-05T03:24:24;0.40;99.90
1578;DHT22;57623;53.608;10.004;2023-02-05T03:26:55;0.30;99.90
1578;DHT22;57623;53.608;10.004;2023-02-05T03:29:31;0.40;99.90
1578;DHT22;57623;53.608;10.004;2023-02-05T03:32:09;0.30;99.90
1578;DHT22;57623;53.608;10.004;2023-02-05T03:34:50;0.30;99.90
1578;DHT22;57623;53.608;10.004;2023-02-05T03:37:28;0.30;99.90
1578;DHT22;57623;53.608;10.004;2023-02-05T03:40:11;0.30;99.90
1578;DHT22;57623;53.608;10.004;2023-02-05T03:42:49;0.30;99.90
1578;DHT22;57623;53.608;10.004;2023-02-05T03:45:37;0.30;99.90
1578;DHT22;57623;53.608;10.004;2023-02-05T03:48:41;0.30;99.90
1578;DHT22;57623;53.608;10.004;2023-02-05T03:51:24;0.30;99.90
1578;DHT22;57623;53.608;10.004;2023-02-05T03:54:08;0.30;99.90
1578;DHT22;57623;53.608;10.004;2023-02-05T03:56:48;0.30;99.90
1578;DHT22;57623;53.608;10.004;2023-02-05T03:59:18;0.30;99.90
1578;DHT22;57623;53.608;10.004;2023-02-05T04:01:51;0.20;99.90
1578;DHT22;57623;53.608;10.004;2023-02-05T04:04:20;0.20;99.90
1578;DHT22;57623;53.608;10.004;2023-02-05T04:06:53;0.20;99.90
1578;DHT22;57623;53.608;10.004;2023-02-05T04:09:21;0.20;99.90
1578;DHT22;57623;53.608;10.004;2023-02-05T04:11:51;0.20;99.90
1578;DHT22;57623;53.608;10.004;2023-02-05T04:14:23;0.20;99.90
1578;DHT22;57623;53.608;10.004;2023-02-05T04:16:56;0.20;99.90
1578;DHT22;57623;53.608;10.004;2023-02-05T04:19:25;0.20;99.90
1578;DHT22;57623;53.608;10.004;2023-02-05T04:21:53;0.20;99.90
1578;DHT22;57623;53.608;10.004;2023-02-05T04:24:21;0.20;99.90
1578;DHT22;57623;53.608;10.004;2023-02-05T04:26:50;0.20;99.90
1578;DHT22;57623;53.608;10.004;2023-02-05T04:29:21;0.20;99.90
1578;DHT22;57623;53.608;10.004;2023-02-05T04:31:53;0.30;99.90
1578;DHT22;57623;53.608;10.004;2023-02-05T04:34:22;0.30;99.90
1578;DHT22;57623;53.608;10.004;2023-02-05T04:36:50;0.30;99.90
1578;DHT22;57623;53.608;10.004;2023-02-05T04:39:22;0.30;99.90
1578;DHT22;57623;53.608;10.004;2023-02-05T04:41:55;0.20;99.90
1578;DHT22;57623;53.608;10.004;2023-02-05T04:44:29;0.20;99.90
1578;DHT22;57623;53.608;10.004;2023-02-05T04:47:01;0.20;99.90
1578;DHT22;57623;53.608;10.004;2023-02-05T04:49:33;0.20;99.90
1578;DHT22;57623;53.608;10.004;2023-02-05T04:52:05;0.20;99.90
1578;DHT22;57623;53.608;10.004;2023-02-05T04:54:38;0.20;99.90
1578;DHT22;57623;53.608;10.004;2023-02-05T04:57:09;0.20;99.90
1578;DHT22;57623;53.608;10.004;2023-02-05T04:59:37;0.30;99.90
1578;DHT22;57623;53.608;10.004;2023-02-05T05:02:15;0.30;99.90
1578;DHT22;57623;53.608;10.004;2023-02-05T05:04:48;0.30;99.90
1578;DHT22;57623;53.608;10.004;2023-02-05T05:07:19;0.30;99.90
1578;DHT22;57623;53.608;10.004;2023-02-05T05:09:49;0.30;99.90
1578;DHT22;57623;53.608;10.004;2023-02-05T05:12:18;0.30;99.90
1578;DHT22;57623;53.608;10.004;2023-02-05T05:14:46;0.30;99.90
1578;DHT22;57623;53.608;10.004;2023-02-05T05:17:14;0.30;99.90
1578;DHT22;57623;53.608;10.004;2023-02-05T05:19:43;0.30;99.90
1578;DHT22;57623;53.608;10.004;2023-02-05T05:22:28;0.30;99.90
1578;DHT22;57623;53.608;10.004;2023-02-05T05:25:00;0.30;99.90
1578;DHT22;57623;53.608;10.004;2023-02-05T05:27:30;0.30;99.90
1578;DHT22;57623;53.608;10.004;2023-02-05T05:30:05;0.30;99.90
1578;DHT22;57623;53.608;10.004;2023-02-05T05:32:33;0.30;99.90
1578;DHT22;57623;53.608;10.004;2023-02-05T05:35:04;0.30;99.90
1578;DHT22;57623;53.608;10.004;2023-02-05T05:37:40;0.30;99.90
1578;DHT22;57623;53.608;10.004;2023-02-05T05:40:13;0.30;99.90
1578;DHT22;57623;53.608;10.004;2023-02-05T05:42:59;0.30;99.90
1578;DHT22;57623;53.608;10.004;2023-02-05T05:45:51;0.30;99.90
1578;DHT22;57623;53.608;10.004;2023-02-05T05:48:19;0.30;99.90
1578;DHT22;57623;53.608;10.004;2023-02-05T05:50:50;0.40;99.90
1578;DHT22;57623;53.608;10.004;2023-02-05T05:53:23;0.40;99.90
1578;DHT22;57623;53.608;10.004;2023-02-05T05:55:55;0.40;99.90
1578;DHT22;57623;53.608;10.004;2023-02-05T05:58:26;0.40;99.90
1578;DHT22;57623;53.608;10.004;2023-02-05T06:00:58;0.40;99.90
1578;DHT22;57623;53.608;10.004;2023-02-05T06:03:29;0.40;99.90
1578;DHT22;57623;53.608;10.004;2023-02-05T06:06:06;0.40;99.90
1578;DHT22;57623;53.608;10.004;2023-02-05T06:08:57;0.40;99.90
1578;DHT22;57623;53.608;10.004;2023-02-05T06:11:26;0.40;99.90
1578;DHT22;57623;53.608;10.004;2023-02-05T06:13:57;0.40;99.90
1578;DHT22;57623;53.608;10.004;2023-02-05T06:16:26;0.40;99.90
1578;DHT22;57623;53.608;10.004;2023-02-05T06:19:02;0.40;99.90
1578;DHT22;57623;53.608;10.004;2023-02-05T06:21:32;0.40;99.90
1578;DHT22;57623;53.608;10.004;2023-02-05T06:24:02;0.40;99.90
1578;DHT22;57623;53.608;10.004;2023-02-05T06:26:36;0.40;99.90
1578;DHT22;57623;53.608;10.004;2023-02-05T06:29:05;0.40;99.90
1578;DHT22;57623;53.608;10.004;2023-02-05T06:31:40;0.40;99.90
1578;DHT22;57623;53.608;10.004;2023-02-05T06:34:08;0.40;99.90
1578;DHT22;57623;53.608;10.004;2023-02-05T06:36:36;0.40;99.90
1578;DHT22;57623;53.608;10.004;2023-02-05T06:39:12;0.40;99.90
1578;DHT22;57623;53.608;10.004;2023-02-05T06:41:40;0.40;99.90
1578;DHT22;57623;53.608;10.004;2023-02-05T06:44:15;0.40;99.90
1578;DHT22;57623;53.608;10.004;2023-02-05T06:46:46;0.40;99.90
1578;DHT22;57623;53.608;10.004;2023-02-05T06:49:14;0.50;99.90
1578;DHT22;57623;53.608;10.004;2023-02-05T06:51:43;0.50;99.90
1578;DHT22;57623;53.608;10.004;2023-02-05T06:54:16;0.50;99.90
1578;DHT22;57623;53.608;10.004;2023-02-05T06:56:46;0.50;99.90
1578;DHT22;57623;53.608;10.004;2023-02-05T06:59:18;0.50;99.90
1578;DHT22;57623;53.608;10.004;2023-02-05T07:01:48;0.50;99.90
1578;DHT22;57623;53.608;10.004;2023-02-05T07:04:18;0.50;99.90
1578;DHT22;57623;53.608;10.004;2023-02-05T07:06:46;0.50;99.90
1578;DHT22;57623;53.608;10.004;2023-02-05T07:09:20;0.40;99.90
1578;DHT22;57623;53.608;10.004;2023-02-05T07:11:48;0.40;99.90
1578;DHT22;57623;53.608;10.004;2023-02-05T07:14:17;0.50;99.90
1578;DHT22;57623;53.608;10.004;2023-02-05T07:16:48;0.50;99.90
1578;DHT22;57623;53.608;10.004;2023-02-05T07:19:20;0.50;99.90
1578;DHT22;57623;53.608;10.004;2023-02-05T07:21:51;0.50;99.90
1578;DHT22;57623;53.608;10.004;2023-02-05T07:24:22;0.50;99.90
1578;DHT22;57623;53.608;10.004;2023-02-05T07:26:50;0.50;99.90
1578;DHT22;57623;53.608;10.004;2023-02-05T07:29:20;0.50;99.90
1578;DHT22;57623;53.608;10.004;2023-02-05T07:31:48;0.50;99.90
1578;DHT22;57623;53.608;10.004;2023-02-05T07:34:17;0.40;99.90
1578;DHT22;57623;53.608;10.004;2023-02-05T07:36:50;0.50;99.90
1578;DHT22;57623;53.608;10.004;2023-02-05T07:39:25;0.40;99.90
1578;DHT22;57623;53.608;10.004;2023-02-05T07:41:53;0.50;99.90
1578;DHT22;57623;53.608;10.004;2023-02-05T07:44:30;0.50;99.90
1578;DHT22;57623;53.608;10.004;2023-02-05T07:47:03;0.50;99.90
1578;DHT22;57623;53.608;10.004;2023-02-05T07:49:35;0.50;99.90
1578;DHT22;57623;53.608;10.004;2023-02-05T07:52:03;0.50;99.90
1578;DHT22;57623;53.608;10.004;2023-02-05T07:54:36;0.50;99.90
1578;DHT22;57623;53.608;10.004;2023-02-05T07:57:03;0.50;99.90
1578;DHT22;57623;53.608;10.004;2023-02-05T07:59:34;0.50;99.90
1578;DHT22;57623;53.608;10.004;2023-02-05T08:02:02;0.50;99.90
1578;DHT22;57623;53.608;10.004;2023-02-05T08:04:32;0.60;99.90
1578;DHT22;57623;53.608;10.004;2023-02-05T08:07:00;0.60;99.90
1578;DHT22;57623;53.608;10.004;2023-02-05T08:09:28;0.60;99.90
1578;DHT22;57623;53.608;10.004;2023-02-05T08:11:59;0.60;99.90
1578;DHT22;57623;53.608;10.004;2023-02-05T08:14:27;0.60;99.90
1578;DHT22;57623;53.608;10.004;2023-02-05T08:16:57;0.60;99.90
1578;DHT22;57623;53.608;10.004;2023-02-05T08:19:26;0.60;99.90
1578;DHT22;57623;53.608;10.004;2023-02-05T08:21:54;0.70;99.90
1578;DHT22;57623;53.608;10.004;2023-02-05T08:24:22;0.70;99.90
1578;DHT22;57623;53.608;10.004;2023-02-05T08:26:50;0.70;99.90
1578;DHT22;57623;53.608;10.004;2023-02-05T08:29:21;0.70;99.90
1578;DHT22;57623;53.608;10.004;2023-02-05T08:31:49;0.80;99.90
1578;DHT22;57623;53.608;10.004;2023-02-05T08:34:17;0.80;99.90
1578;DHT22;57623;53.608;10.004;2023-02-05T08:36:48;0.80;99.90
1578;DHT22;57623;53.608;10.004;2023-02-05T08:39:18;0.90;99.90
1578;DHT22;57623;53.608;10.004;2023-02-05T08:41:45;0.90;99.90
1578;DHT22;57623;53.608;10.004;2023-02-05T08:44:14;0.90;99.90
1578;DHT22;57623;53.608;10.004;2023-02-05T08:46:44;0.90;99.90
1578;DHT22;57623;53.608;10.004;2023-02-05T08:49:16;1.00;99.90
1578;DHT22;57623;53.608;10.004;2023-02-05T08:51:44;1.00;99.90
1578;DHT22;57623;53.608;10.004;2023-02-05T08:54:12;1.00;99.90
1578;DHT22;57623;53.608;10.004;2023-02-05T08:56:42;1.00;99.90
1578;DHT22;57623;53.608;10.004;2023-02-05T08:59:11;1.10;99.90
1578;DHT22;57623;53.608;10.004;2023-02-05T09:01:40;1.10;99.90
1578;DHT22;57623;53.608;10.004;2023-02-05T09:04:12;1.10;99.90
1578;DHT22;57623;53.608;10.004;2023-02-05T09:06:41;1.10;99.90
1578;DHT22;57623;53.608;10.004;2023-02-05T09:09:09;1.20;99.90
1578;DHT22;57623;53.608;10.004;2023-02-05T09:11:37;1.20;99.90
1578;DHT22;57623;53.608;10.004;2023-02-05T09:14:05;1.30;99.90
1578;DHT22;57623;53.608;10.004;2023-02-05T09:16:34;1.30;99.90
1578;DHT22;57623;53.608;10.004;2023-02-05T09:19:02;1.30;99.90
1578;DHT22;57623;53.608;10.004;2023-02-05T09:21:31;1.30;99.90
1578;DHT22;57623;53.608;10.004;2023-02-05T09:23:59;1.40;99.90
1578;DHT22;57623;53.608;10.004;2023-02-05T09:26:27;1.40;99.90
1578;DHT22;57623;53.608;10.004;2023-02-05T09:28:56;1.40;99.90
1578;DHT22;57623;53.608;10.004;2023-02-05T09:31:24;1.50;99.90
1578;DHT22;57623;53.608;10.004;2023-02-05T09:33:52;1.50;99.90
1578;DHT22;57623;53.608;10.004;2023-02-05T09:36:22;1.50;99.90
1578;DHT22;57623;53.608;10.004;2023-02-05T09:38:51;1.50;99.90
1578;DHT22;57623;53.608;10.004;2023-02-05T09:41:46;1.60;99.90
1578;DHT22;57623;53.608;10.004;2023-02-05T09:44:21;1.60;99.90
1578;DHT22;57623;53.608;10.004;2023-02-05T09:46:58;1.60;99.90
1578;DHT22;57623;53.608;10.004;2023-02-05T09:49:31;1.60;99.90
1578;DHT22;57623;53.608;10.004;2023-02-05T09:52:06;1.60;99.90
1578;DHT22;57623;53.608;10.004;2023-02-05T09:54:41;1.70;99.90
1578;DHT22;57623;53.608;10.004;2023-02-05T09:57:15;1.70;99.90
1578;DHT22;57623;53.608;10.004;2023-02-05T09:59:46;1.70;99.90
1578;DHT22;57623;53.608;10.004;2023-02-05T10:02:21;1.80;99.90
1578;DHT22;57623;53.608;10.004;2023-02-05T10:04:51;1.80;99.90
1578;DHT22;57623;53.608;10.004;2023-02-05T10:07:34;1.80;99.90
1578;DHT22;57623;53.608;10.004;2023-02-05T10:10:25;1.80;99.90
1578;DHT22;57623;53.608;10.004;2023-02-05T10:13:07;1.90;99.90
1578;DHT22;57623;53.608;10.004;2023-02-05T10:15:51;1.90;99.90
1578;DHT22;57623;53.608;10.004;2023-02-05T10:18:28;1.90;99.90
1578;DHT22;57623;53.608;10.004;2023-02-05T10:21:09;2.00;99.90
1578;DHT22;57623;53.608;10.004;2023-02-05T10:24:02;2.00;99.90
1578;DHT22;57623;53.608;10.004;2023-02-05T10:26:38;2.00;99.90
1578;DHT22;57623;53.608;10.004;2023-02-05T10:29:25;2.10;99.90
1578;DHT22;57623;53.608;10.004;2023-02-05T10:32:06;2.10;99.90
1578;DHT22;57623;53.608;10.004;2023-02-05T10:34:54;2.10;99.90
1578;DHT22;57623;53.608;10.004;2023-02-05T10:37:35;2.20;99.90
1578;DHT22;57623;53.608;10.004;2023-02-05T10:40:13;2.20;99.90
1578;DHT22;57623;53.608;10.004;2023-02-05T10:42:48;2.30;99.90
1578;DHT22;57623;53.608;10.004;2023-02-05T10:45:20;2.30;99.90
1578;DHT22;57623;53.608;10.004;2023-02-05T10:48:06;2.30;99.90
1578;DHT22;57623;53.608;10.004;2023-02-05T10:50:46;2.30;99.90
1578;DHT22;57623;53.608;10.004;2023-02-05T10:53:21;2.30;99.90
1578;DHT22;57623;53.608;10.004;2023-02-05T10:55:49;2.40;99.90
1578;DHT22;57623;53.608;10.004;2023-02-05T10:58:32;2.40;99.90
1578;DHT22;57623;53.608;10.004;2023-02-05T11:01:03;2.50;99.90
1578;DHT22;57623;53.608;10.004;2023-02-05T11:03:32;2.40;99.90
1578;DHT22;57623;53.608;10.004;2023-02-05T11:06:06;2.50;99.90
1578;DHT22;57623;53.608;10.004;2023-02-05T11:08:36;2.50;99.90
1578;DHT22;57623;53.608;10.004;2023-02-05T11:11:06;2.50;99.90
1578;DHT22;57623;53.608;10.004;2023-02-05T11:13:50;2.60;99.90
1578;DHT22;57623;53.608;10.004;2023-02-05T11:16:20;2.50;99.90
1578;DHT22;57623;53.608;10.004;2023-02-05T11:19:03;2.60;99.90
1578;DHT22;57623;53.608;10.004;2023-02-05T11:21:49;2.60;99.90
1578;DHT22;57623;53.608;10.004;2023-02-05T11:24:26;2.70;99.90
1578;DHT22;57623;53.608;10.004;2023-02-05T11:30:18;2.70;99.90
1578;DHT22;57623;53.608;10.004;2023-02-05T11:33:17;2.70;99.90
1578;DHT22;57623;53.608;10.004;2023-02-05T11:35:54;2.80;99.90
1578;DHT22;57623;53.608;10.004;2023-02-05T11:38:31;2.80;99.90
1578;DHT22;57623;53.608;10.004;2023-02-05T11:41:03;2.80;99.90
1578;DHT22;57623;53.608;10.004;2023-02-05T11:43:34;2.80;99.90
1578;DHT22;57623;53.608;10.004;2023-02-05T11:46:08;2.80;99.90
1578;DHT22;57623;53.608;10.004;2023-02-05T11:48:50;2.80;99.90
1578;DHT22;57623;53.608;10.004;2023-02-05T11:51:32;2.80;99.90
1578;DHT22;57623;53.608;10.004;2023-02-05T11:54:10;2.90;99.90
1578;DHT22;57623;53.608;10.004;2023-02-05T11:57:00;2.90;99.90
1578;DHT22;57623;53.608;10.004;2023-02-05T11:59:30;2.90;99.90
1578;DHT22;57623;53.608;10.004;2023-02-05T12:02:20;3.00;99.90
1578;DHT22;57623;53.608;10.004;2023-02-05T12:04:57;3.00;99.90
1578;DHT22;57623;53.608;10.004;2023-02-05T12:07:28;3.00;99.90
1578;DHT22;57623;53.608;10.004;2023-02-05T12:09:58;3.00;99.90
1578;DHT22;57623;53.608;10.004;2023-02-05T12:12:29;3.10;99.90
1578;DHT22;57623;53.608;10.004;2023-02-05T12:15:10;3.10;99.90
1578;DHT22;57623;53.608;10.004;2023-02-05T12:17:49;3.10;99.90
1578;DHT22;57623;53.608;10.004;2023-02-05T12:20:21;3.20;99.90
1578;DHT22;57623;53.608;10.004;2023-02-05T12:23:21;3.20;99.90
1578;DHT22;57623;53.608;10.004;2023-02-05T12:26:01;3.20;99.90
1578;DHT22;57623;53.608;10.004;2023-02-05T12:28:39;3.20;99.90
1578;DHT22;57623;53.608;10.004;2023-02-05T12:31:20;3.20;99.90
1578;DHT22;57623;53.608;10.004;2023-02-05T12:34:07;3.20;99.90
1578;DHT22;57623;53.608;10.004;2023-02-05T12:36:47;3.20;99.90
1578;DHT22;57623;53.608;10.004;2023-02-05T12:39:31;3.20;99.90
1578;DHT22;57623;53.608;10.004;2023-02-05T12:42:14;3.20;99.90
1578;DHT22;57623;53.608;10.004;2023-02-05T12:44:55;3.20;99.90
1578;DHT22;57623;53.608;10.004;2023-02-05T12:47:47;3.20;99.90
1578;DHT22;57623;53.608;10.004;2023-02-05T12:50:35;3.20;99.90
1578;DHT22;57623;53.608;10.004;2023-02-05T12:53:16;3.30;99.90
1578;DHT22;57623;53.608;10.004;2023-02-05T12:55:56;3.40;99.90
1578;DHT22;57623;53.608;10.004;2023-02-05T12:58:34;3.50;99.90
1578;DHT22;57623;53.608;10.004;2023-02-05T13:01:09;3.50;99.90
1578;DHT22;57623;53.608;10.004;2023-02-05T13:03:42;3.50;99.90
1578;DHT22;57623;53.608;10.004;2023-02-05T13:06:19;3.50;99.90
1578;DHT22;57623;53.608;10.004;2023-02-05T13:08:51;3.50;99.90
1578;DHT22;57623;53.608;10.004;2023-02-05T13:11:26;3.40;99.90
1578;DHT22;57623;53.608;10.004;2023-02-05T13:13:59;3.40;99.90
1578;DHT22;57623;53.608;10.004;2023-02-05T13:16:34;3.40;99.90
1578;DHT22;57623;53.608;10.004;2023-02-05T13:19:17;3.40;99.90
1578;DHT22;57623;53.608;10.004;2023-02-05T13:21:51;3.40;99.90
1578;DHT22;57623;53.608;10.004;2023-02-05T13:24:43;3.50;99.90
1578;DHT22;57623;53.608;10.004;2023-02-05T13:27:37;3.50;99.90
1578;DHT22;57623;53.608;10.004;2023-02-05T13:30:32;3.60;99.90
1578;DHT22;57623;53.608;10.004;2023-02-05T13:33:07;3.70;99.90
1578;DHT22;57623;53.608;10.004;2023-02-05T13:35:43;3.80;99.90
1578;DHT22;57623;53.608;10.004;2023-02-05T13:38:33;3.80;99.90
1578;DHT22;57623;53.608;10.004;2023-02-05T13:41:35;3.90;99.90
1578;DHT22;57623;53.608;10.004;2023-02-05T13:44:24;3.90;99.90
1578;DHT22;57623;53.608;10.004;2023-02-05T13:50:26;3.80;99.90
1578;DHT22;57623;53.608;10.004;2023-02-05T13:53:18;3.80;99.90
1578;DHT22;57623;53.608;10.004;2023-02-05T13:56:16;3.80;99.90
1578;DHT22;57623;53.608;10.004;2023-02-05T13:58:49;3.70;99.90
1578;DHT22;57623;53.608;10.004;2023-02-05T14:01:21;3.70;99.90
1578;DHT22;57623;53.608;10.004;2023-02-05T14:03:55;3.70;99.90
1578;DHT22;57623;53.608;10.004;2023-02-05T14:06:28;3.80;99.90
1578;DHT22;57623;53.608;10.004;2023-02-05T14:09:03;3.80;99.90
1578;DHT22;57623;53.608;10.004;2023-02-05T14:11:55;3.80;99.90
1578;DHT22;57623;53.608;10.004;2023-02-05T14:14:27;3.80;99.90
1578;DHT22;57623;53.608;10.004;2023-02-05T14:16:59;3.80;99.90
1578;DHT22;57623;53.608;10.004;2023-02-05T14:19:51;3.80;99.90
1578;DHT22;57623;53.608;10.004;2023-02-05T14:22:37;3.80;99.90
1578;DHT22;57623;53.608;10.004;2023-02-05T14:28:33;3.80;99.90
1578;DHT22;57623;53.608;10.004;2023-02-05T14:31:02;3.70;99.90
1578;DHT22;57623;53.608;10.004;2023-02-05T14:33:38;3.70;99.90
1578;DHT22;57623;53.608;10.004;2023-02-05T14:36:31;3.70;99.90
1578;DHT22;57623;53.608;10.004;2023-02-05T14:39:04;3.70;99.90
1578;DHT22;57623;53.608;10.004;2023-02-05T14:41:48;3.80;99.90
1578;DHT22;57623;53.608;10.004;2023-02-05T14:44:23;3.80;99.90
1578;DHT22;57623;53.608;10.004;2023-02-05T14:47:15;3.80;99.90
1578;DHT22;57623;53.608;10.004;2023-02-05T14:49:50;3.80;99.90
1578;DHT22;57623;53.608;10.004;2023-02-05T14:52:33;3.80;99.90
1578;DHT22;57623;53.608;10.004;2023-02-05T14:55:07;3.80;99.90
1578;DHT22;57623;53.608;10.004;2023-02-05T14:57:48;3.90;99.90
1578;DHT22;57623;53.608;10.004;2023-02-05T15:00:33;3.80;99.90
1578;DHT22;57623;53.608;10.004;2023-02-05T15:03:25;3.80;99.90
1578;DHT22;57623;53.608;10.004;2023-02-05T15:06:01;3.80;99.90
1578;DHT22;57623;53.608;10.004;2023-02-05T15:08:47;3.80;99.90
1578;DHT22;57623;53.608;10.004;2023-02-05T15:11:26;3.80;99.90
1578;DHT22;57623;53.608;10.004;2023-02-05T15:14:24;3.80;99.90
1578;DHT22;57623;53.608;10.004;2023-02-05T15:20:19;3.80;99.90
1578;DHT22;57623;53.608;10.004;2023-02-05T15:22:51;3.70;99.90
1578;DHT22;57623;53.608;10.004;2023-02-05T15:25:31;3.70;99.90
1578;DHT22;57623;53.608;10.004;2023-02-05T15:28:03;3.70;99.90
1578;DHT22;57623;53.608;10.004;2023-02-05T15:30:50;3.70;99.90
1578;DHT22;57623;53.608;10.004;2023-02-05T15:33:32;3.70;99.90
1578;DHT22;57623;53.608;10.004;2023-02-05T15:36:10;3.70;99.90
1578;DHT22;57623;53.608;10.004;2023-02-05T15:38:43;3.70;99.90
1578;DHT22;57623;53.608;10.004;2023-02-05T15:41:14;3.70;99.90
1578;DHT22;57623;53.608;10.004;2023-02-05T15:43:57;3.60;99.90
1578;DHT22;57623;53.608;10.004;2023-02-05T15:46:26;3.60;99.90
1578;DHT22;57623;53.608;10.004;2023-02-05T15:48:57;3.70;99.90
1578;DHT22;57623;53.608;10.004;2023-02-05T15:51:31;3.60;99.90
1578;DHT22;57623;53.608;10.004;2023-02-05T15:54:04;3.60;99.90
1578;DHT22;57623;53.608;10.004;2023-02-05T15:56:39;3.70;99.90
1578;DHT22;57623;53.608;10.004;2023-02-05T15:59:16;3.70;99.90
1578;DHT22;57623;53.608;10.004;2023-02-05T16:01:48;3.70;99.90
1578;DHT22;57623;53.608;10.004;2023-02-05T16:04:23;3.70;99.90
1578;DHT22;57623;53.608;10.004;2023-02-05T16:06:56;3.70;99.90
1578;DHT22;57623;53.608;10.004;2023-02-05T16:09:28;3.70;99.90
1578;DHT22;57623;53.608;10.004;2023-02-05T16:12:12;3.70;99.90
1578;DHT22;57623;53.608;10.004;2023-02-05T16:14:41;3.70;99.90
1578;DHT22;57623;53.608;10.004;2023-02-05T16:17:13;3.70;99.90
1578;DHT22;57623;53.608;10.004;2023-02-05T16:19:48;3.70;99.90
1578;DHT22;57623;53.608;10.004;2023-02-05T16:22:27;3.70;99.90
1578;DHT22;57623;53.608;10.004;2023-02-05T16:25:00;3.70;99.90
1578;DHT22;57623;53.608;10.004;2023-02-05T16:27:38;3.70;99.90
1578;DHT22;57623;53.608;10.004;2023-02-05T16:30:14;3.70;99.90
1578;DHT22;57623;53.608;10.004;2023-02-05T16:32:46;3.70;99.90
1578;DHT22;57623;53.608;10.004;2023-02-05T16:35:23;3.70;99.90
1578;DHT22;57623;53.608;10.004;2023-02-05T16:37:55;3.60;99.90
1578;DHT22;57623;53.608;10.004;2023-02-05T16:40:34;3.60;99.90
1578;DHT22;57623;53.608;10.004;2023-02-05T16:43:29;3.60;99.90
1578;DHT22;57623;53.608;10.004;2023-02-05T16:46:24;3.60;99.90
1578;DHT22;57623;53.608;10.004;2023-02-05T16:48:55;3.60;99.90